Time;durP1;ratioP1;P1;durP2;ratioP2;P2;SDS_P1;SDS_P2;PMS_P1;PMS_P2;Temp;Humidity;BMP_temperature;BMP_pressure;BME280_temperature;BME280_humidity;BME280_pressure;Samples;Min_cycle;Max_cycle;Signal;HPM_P1;HPM_P2
2023/08/14 00:04:23;;;;;;;;;5.00;5.00;;;;;;;;2;208366443;208366443;-74
2023/08/14 00:12:23;;;;;;;;;4.00;4.00;;;;;;;;2;247032201;247032201;-74
2023/08/14 00:19:29;;;;;;;;;4.50;4.50;;;;;;;;2;209759517;209759517;-74
2023/08/14 00:27:31;;;;;;;;;5.50;5.50;;;;;;;;2;247811999;247811999;-73
2023/08/14 00:34:35;;;;;;;;;10.00;10.00;;;;;;;;2;207266601;207266601;-73
2023/08/14 00:42:39;;;;;;;;;26.00;4.50;;;;;;;;2;247742703;247742703;-74
2023/08/14 00:49:44;;;;;;;;;19.50;11.00;;;;;;;;2;207243313;207243313;-73
2023/08/14 00:57:47;;;;;;;;;8.00;8.00;;;;;;;;2;249979060;249979060;-74
2023/08/14 01:04:54;;;;;;;;;14.50;14.50;;;;;;;;2;210687625;210687625;-74
2023/08/14 01:12:59;;;;;;;;;6.00;6.00;;;;;;;;2;248753132;248753132;-74
2023/08/14 01:20:08;;;;;;;;;4.00;4.00;;;;;;;;2;207142611;207142611;-73
2023/08/14 01:28:06;;;;;;;;;9.00;6.00;;;;;;;;2;246036519;246036519;-73
2023/08/14 01:35:08;;;;;;;;;9.50;5.50;;;;;;;;2;207590161;207590161;-74
2023/08/14 01:43:13;;;;;;;;;16.00;8.50;;;;;;;;2;248792110;248792110;-74
2023/08/14 01:50:14;;;;;;;;;8.00;8.00;;;;;;;;2;206047062;206047062;-74
2023/08/14 01:58:14;;;;;;;;;11.50;11.50;;;;;;;;2;246390088;246390088;-74
2023/08/14 02:05:16;;;;;;;;;8.00;8.00;;;;;;;;2;204976587;204976587;-73
2023/08/14 02:13:16;;;;;;;;;5.50;5.50;;;;;;;;2;247999361;247999361;-74
2023/08/14 02:20:24;;;;;;;;;5.00;5.00;;;;;;;;2;209270871;209270871;-73
2023/08/14 02:28:28;;;;;;;;;12.00;8.50;;;;;;;;2;249815009;249815009;-74
2023/08/14 02:35:31;;;;;;;;;6.00;6.00;;;;;;;;2;207585735;207585735;-73
2023/08/14 02:43:28;;;;;;;;;16.00;8.00;;;;;;;;2;247323796;247323796;-73
2023/08/14 02:50:35;;;;;;;;;6.50;6.50;;;;;;;;2;209600130;209600130;-73
2023/08/14 02:58:36;;;;;;;;;4.50;4.50;;;;;;;;2;244081689;244081689;-73
2023/08/14 03:05:38;;;;;;;;;14.50;6.50;;;;;;;;2;205933984;205933984;-74
2023/08/14 03:13:35;;;;;;;;;5.50;5.50;;;;;;;;2;247659897;247659897;-73
2023/08/14 03:20:34;;;;;;;;;8.00;8.00;;;;;;;;2;203123817;203123817;-73
2023/08/14 03:28:32;;;;;;;;;8.50;8.50;;;;;;;;2;247748456;247748456;-73
2023/08/14 03:35:36;;;;;;;;;6.50;4.00;;;;;;;;2;209701609;209701609;-73
2023/08/14 03:43:27;;;;;;;;;7.00;7.00;;;;;;;;2;246910594;246910594;-73
2023/08/14 03:50:25;;;;;;;;;4.00;4.00;;;;;;;;2;207229437;207229437;-73
2023/08/14 03:58:15;;;;;;;;;6.00;6.00;;;;;;;;2;243693360;243693360;-73
2023/08/14 04:05:10;;;;;;;;;9.00;9.00;;;;;;;;2;202563471;202563471;-74
2023/08/14 04:13:07;;;;;;;;;17.50;9.50;;;;;;;;2;248669438;248669438;-73
2023/08/14 04:20:09;;;;;;;;;6.00;6.00;;;;;;;;2;207779186;207779186;-73
2023/08/14 04:28:03;;;;;;;;;2.50;2.50;;;;;;;;2;243783139;243783139;-73
2023/08/14 04:35:03;;;;;;;;;3.50;3.50;;;;;;;;2;207172912;207172912;-73
2023/08/14 04:42:58;;;;;;;;;5.50;1.50;;;;;;;;2;246405441;246405441;-73
2023/08/14 04:49:56;;;;;;;;;2.50;2.50;;;;;;;;2;206184457;206184457;-73
2023/08/14 04:57:48;;;;;;;;;2.00;2.00;;;;;;;;2;245319994;245319994;-73
2023/08/14 05:04:48;;;;;;;;;1.00;1.00;;;;;;;;2;204859556;204859556;-74
2023/08/14 05:12:44;;;;;;;;;2.50;2.50;;;;;;;;2;245646652;245646652;-73
2023/08/14 05:19:35;;;;;;;;;0.00;0.00;;;;;;;;2;201190187;201190187;-72
2023/08/14 05:27:23;;;;;;;;;2.00;2.00;;;;;;;;2;242998006;242998006;-70
2023/08/14 05:34:12;;;;;;;;;4.50;4.50;;;;;;;;2;201091176;201091176;-73
2023/08/14 05:41:54;;;;;;;;;1.00;1.00;;;;;;;;2;237610685;237610685;-73
2023/08/14 05:48:43;;;;;;;;;0.50;0.50;;;;;;;;2;200651510;200651510;-73
2023/08/14 05:56:17;;;;;;;;;0.50;0.50;;;;;;;;2;236289943;236289943;-73
2023/08/14 06:00:30;;;;;;;;;6.00;2.00;;;;;;;;2;193139005;193139005;-73
2023/08/14 06:05:14;;;;;;;;;1.50;1.50;;;;;;;;2;226959549;226959549;-73
2023/08/14 06:12:22;;;;;;;;;5.00;5.00;;;;;;;;171706;28;192556048;-73
2023/08/14 06:19:18;;;;;;;;;5.00;5.00;;;;;;;;2;218876764;218876764;-73
2023/08/14 06:26:38;;;;;;;;;3.00;3.00;;;;;;;;2;205353135;205353135;-73
2023/08/14 06:33:38;;;;;;;;;4.00;4.00;;;;;;;;2;223480639;223480639;-73
2023/08/14 06:40:58;;;;;;;;;8.50;8.50;;;;;;;;2;204966081;204966081;-73
2023/08/14 06:47:56;;;;;;;;;3.00;3.00;;;;;;;;2;219241271;219241271;-73
2023/08/14 06:55:20;;;;;;;;;2.50;2.50;;;;;;;;2;206562887;206562887;-72
2023/08/14 07:02:17;;;;;;;;;0.50;0.50;;;;;;;;2;221502968;221502968;-73
2023/08/14 07:09:41;;;;;;;;;0.50;0.50;;;;;;;;2;205324732;205324732;-73
2023/08/14 07:16:34;;;;;;;;;3.50;3.50;;;;;;;;2;219577504;219577504;-74
2023/08/14 07:23:46;;;;;;;;;1.00;1.00;;;;;;;;2;203511545;203511545;-74
2023/08/14 07:30:24;;;;;;;;;1.00;1.00;;;;;;;;2;215413403;215413403;-74
2023/08/14 07:34:10;;;;;;;;;1.00;1.00;;;;;;;;2;182204606;182204606;-73
2023/08/14 07:40:32;;;;;;;;;0.50;0.50;;;;;;;;175519;27;181462988;-74
2023/08/14 07:47:50;;;;;;;;;2.00;2.00;;;;;;;;2;223496790;223496790;-75
2023/08/14 07:54:25;;;;;;;;;0.50;0.50;;;;;;;;2;192270712;192270712;-72
2023/08/14 08:01:53;;;;;;;;;0.00;0.00;;;;;;;;2;228842048;228842048;-74
2023/08/14 08:08:28;;;;;;;;;1.00;1.00;;;;;;;;2;192107107;192107107;-72
2023/08/14 08:15:54;;;;;;;;;1.00;1.00;;;;;;;;2;230399470;230399470;-72
2023/08/14 08:22:23;;;;;;;;;0.00;0.00;;;;;;;;2;190451872;190451872;-72
2023/08/14 08:29:57;;;;;;;;;2.50;2.50;;;;;;;;2;234858744;234858744;-72
2023/08/14 08:36:33;;;;;;;;;0.00;0.00;;;;;;;;2;195288917;195288917;-73
2023/08/14 08:44:14;;;;;;;;;0.50;0.50;;;;;;;;2;231376306;231376306;-72
2023/08/14 08:50:51;;;;;;;;;3.50;0.50;;;;;;;;2;192716430;192716430;-73
2023/08/14 08:58:24;;;;;;;;;0.50;0.50;;;;;;;;2;235807189;235807189;-73
2023/08/14 09:05:04;;;;;;;;;13.00;1.00;;;;;;;;2;195786720;195786720;-74
2023/08/14 09:12:35;;;;;;;;;0.50;0.50;;;;;;;;2;233839314;233839314;-75
2023/08/14 09:19:18;;;;;;;;;1.50;1.50;;;;;;;;2;197021529;197021529;-73
2023/08/14 09:26:47;;;;;;;;;0.00;0.00;;;;;;;;2;230601719;230601719;-73
2023/08/14 09:33:19;;;;;;;;;2.50;2.50;;;;;;;;2;190073613;190073613;-74
2023/08/14 09:40:45;;;;;;;;;2.50;2.50;;;;;;;;2;232015941;232015941;-74
2023/08/14 09:47:25;;;;;;;;;1.00;1.00;;;;;;;;2;195392371;195392371;-74
2023/08/14 09:55:11;;;;;;;;;1.00;1.00;;;;;;;;2;235781643;235781643;-73
2023/08/14 10:02:22;;;;;;;;;0.50;0.50;;;;;;;;2;208890122;208890122;-73
2023/08/14 10:10:28;;;;;;;;;0.50;0.50;;;;;;;;2;249397698;249397698;-72
2023/08/14 10:17:38;;;;;;;;;0.00;0.00;;;;;;;;2;209148762;209148762;-73
2023/08/14 10:25:37;;;;;;;;;3.00;3.00;;;;;;;;2;247045918;247045918;-73
2023/08/14 10:32:37;;;;;;;;;0.50;0.50;;;;;;;;2;207049041;207049041;-74
2023/08/14 10:40:28;;;;;;;;;3.50;1.00;;;;;;;;2;244695397;244695397;-73
2023/08/14 10:47:19;;;;;;;;;1.50;1.50;;;;;;;;2;200875289;200875289;-73
2023/08/14 10:55:14;;;;;;;;;1.00;1.00;;;;;;;;2;242475337;242475337;-73
2023/08/14 11:02:10;;;;;;;;;0.00;0.00;;;;;;;;2;201690696;201690696;-74
2023/08/14 11:10:02;;;;;;;;;1.00;1.00;;;;;;;;2;241051223;241051223;-74
2023/08/14 11:17:12;;;;;;;;;2.00;2.00;;;;;;;;2;211471771;211471771;-73
2023/08/14 11:25:14;;;;;;;;;1.50;1.50;;;;;;;;2;248695765;248695765;-74
2023/08/14 11:32:25;;;;;;;;;0.00;0.00;;;;;;;;2;212205307;212205307;-73
2023/08/14 11:40:33;;;;;;;;;1.00;1.00;;;;;;;;2;250407889;250407889;-72
2023/08/14 11:47:49;;;;;;;;;1.00;1.00;;;;;;;;2;211999954;211999954;-72
2023/08/14 11:55:56;;;;;;;;;5.00;5.00;;;;;;;;2;252744559;252744559;-72
2023/08/14 12:03:00;;;;;;;;;1.00;1.00;;;;;;;;2;207356329;207356329;-73
2023/08/14 12:10:57;;;;;;;;;6.50;4.50;;;;;;;;2;245829427;245829427;-74
2023/08/14 12:18:11;;;;;;;;;4.00;4.00;;;;;;;;2;212370091;212370091;-73
2023/08/14 12:26:18;;;;;;;;;1.50;1.50;;;;;;;;2;252904374;252904374;-72
2023/08/14 12:33:24;;;;;;;;;1.00;1.00;;;;;;;;2;210823839;210823839;-72
2023/08/14 12:41:31;;;;;;;;;1.00;1.00;;;;;;;;2;250593587;250593587;-72
2023/08/14 12:48:38;;;;;;;;;1.50;1.50;;;;;;;;2;208143416;208143416;-72
2023/08/14 12:56:47;;;;;;;;;3.00;3.00;;;;;;;;2;251245149;251245149;-72
2023/08/14 13:03:58;;;;;;;;;6.50;4.00;;;;;;;;2;211224450;211224450;-71
2023/08/14 13:12:07;;;;;;;;;1.00;1.00;;;;;;;;2;253145435;253145435;-70
2023/08/14 13:19:21;;;;;;;;;1.00;1.00;;;;;;;;2;211888344;211888344;-71
2023/08/14 13:27:23;;;;;;;;;2.00;2.00;;;;;;;;2;250610856;250610856;-71
2023/08/14 13:34:32;;;;;;;;;1.50;1.50;;;;;;;;2;208984065;208984065;-71
2023/08/14 13:42:41;;;;;;;;;2.00;2.00;;;;;;;;2;252750112;252750112;-71
2023/08/14 13:49:51;;;;;;;;;1.50;1.50;;;;;;;;2;212733480;212733480;-70
2023/08/14 13:58:01;;;;;;;;;0.50;0.50;;;;;;;;2;252101062;252101062;-72
2023/08/14 14:04:53;;;;;;;;;3.00;3.00;;;;;;;;2;200557374;200557374;-71
2023/08/14 14:12:56;;;;;;;;;0.50;0.50;;;;;;;;2;249428143;249428143;-70
2023/08/14 14:20:09;;;;;;;;;1.50;1.50;;;;;;;;2;209937166;209937166;-70
2023/08/14 14:28:14;;;;;;;;;4.00;4.00;;;;;;;;2;249993263;249993263;-72
2023/08/14 14:35:24;;;;;;;;;3.00;3.00;;;;;;;;2;210294979;210294979;-72
2023/08/14 14:43:32;;;;;;;;;1.50;1.50;;;;;;;;2;254176078;254176078;-69
2023/08/14 14:50:40;;;;;;;;;2.00;2.00;;;;;;;;2;210081713;210081713;-72
2023/08/14 14:58:52;;;;;;;;;1.00;1.00;;;;;;;;2;256586727;256586727;-72
2023/08/14 15:06:05;;;;;;;;;2.50;2.50;;;;;;;;2;211765639;211765639;-71
2023/08/14 15:14:15;;;;;;;;;2.50;2.50;;;;;;;;2;253687132;253687132;-71
2023/08/14 15:21:28;;;;;;;;;2.50;2.50;;;;;;;;2;213872624;213872624;-72
2023/08/14 15:29:35;;;;;;;;;4.50;2.00;;;;;;;;2;251740823;251740823;-72
2023/08/14 15:36:38;;;;;;;;;1.50;1.50;;;;;;;;2;211394257;211394257;-72
2023/08/14 15:44:19;;;;;;;;;0.00;0.00;;;;;;;;2;239719154;239719154;-72
2023/08/14 15:51:08;;;;;;;;;1.00;1.00;;;;;;;;2;200585703;200585703;-73
2023/08/14 15:58:55;;;;;;;;;0.50;0.50;;;;;;;;2;242656337;242656337;-72
2023/08/14 16:05:43;;;;;;;;;3.00;3.00;;;;;;;;2;199753170;199753170;-71
2023/08/14 16:13:16;;;;;;;;;1.00;1.00;;;;;;;;2;234220365;234220365;-72
2023/08/14 16:20:04;;;;;;;;;1.50;1.50;;;;;;;;2;196800391;196800391;-71
2023/08/14 16:27:44;;;;;;;;;0.00;0.00;;;;;;;;2;236779992;236779992;-72
2023/08/14 16:34:26;;;;;;;;;1.50;1.50;;;;;;;;2;197973527;197973527;-71
2023/08/14 16:42:08;;;;;;;;;0.50;0.50;;;;;;;;2;241161275;241161275;-72
2023/08/14 16:56:31;;;;;;;;;0.50;0.50;;;;;;;;2;235797978;235797978;-72
2023/08/14 17:03:15;;;;;;;;;9.50;1.50;;;;;;;;2;198146620;198146620;-71
2023/08/14 17:11:03;;;;;;;;;2.00;2.00;;;;;;;;2;241581254;241581254;-72
2023/08/14 17:17:43;;;;;;;;;0.00;0.00;;;;;;;;2;195946088;195946088;-71
2023/08/14 17:25:23;;;;;;;;;2.50;2.50;;;;;;;;2;238709080;238709080;-71
2023/08/14 17:32:14;;;;;;;;;8.00;0.50;;;;;;;;2;201386774;201386774;-72
2023/08/14 17:39:55;;;;;;;;;0.00;0.00;;;;;;;;2;235328706;235328706;-72
2023/08/14 17:46:44;;;;;;;;;1.00;1.00;;;;;;;;2;199619623;199619623;-71
2023/08/14 17:54:23;;;;;;;;;0.00;0.00;;;;;;;;2;238299479;238299479;-71
2023/08/14 18:01:07;;;;;;;;;0.50;0.50;;;;;;;;2;197947250;197947250;-72
2023/08/14 18:08:50;;;;;;;;;2.50;2.50;;;;;;;;2;240544402;240544402;-72
2023/08/14 18:15:39;;;;;;;;;0.50;0.50;;;;;;;;2;203001238;203001238;-71
2023/08/14 18:23:19;;;;;;;;;1.00;1.00;;;;;;;;2;236871670;236871670;-72
2023/08/14 18:30:09;;;;;;;;;0.00;0.00;;;;;;;;2;203252684;203252684;-71
2023/08/14 18:37:52;;;;;;;;;0.00;0.00;;;;;;;;2;241613398;241613398;-71
2023/08/14 18:44:38;;;;;;;;;1.00;1.00;;;;;;;;2;196560621;196560621;-73
2023/08/14 18:52:14;;;;;;;;;0.00;0.00;;;;;;;;2;237340559;237340559;-73
2023/08/14 18:58:58;;;;;;;;;0.00;0.00;;;;;;;;2;195395204;195395204;-71
2023/08/14 19:06:36;;;;;;;;;1.00;1.00;;;;;;;;2;238355224;238355224;-72
2023/08/14 19:13:24;;;;;;;;;0.50;0.50;;;;;;;;2;201581480;201581480;-72
2023/08/14 19:23:52;;;;;;;;;0.50;0.50;;;;;;;;2;238290138;238290138;-72
2023/08/14 19:30:36;;;;;;;;;1.00;1.00;;;;;;;;2;196978989;196978989;-72
2023/08/14 19:38:09;;;;;;;;;0.50;0.50;;;;;;;;2;230985679;230985679;-72
2023/08/14 19:44:57;;;;;;;;;0.50;0.50;;;;;;;;2;199636897;199636897;-71
2023/08/14 19:52:39;;;;;;;;;0.50;0.50;;;;;;;;2;239393497;239393497;-73
2023/08/14 19:59:25;;;;;;;;;0.00;0.00;;;;;;;;2;200909036;200909036;-72
2023/08/14 20:07:06;;;;;;;;;1.50;1.50;;;;;;;;2;237065027;237065027;-73
2023/08/14 20:13:47;;;;;;;;;0.50;0.50;;;;;;;;2;195403746;195403746;-73
2023/08/14 20:21:25;;;;;;;;;0.50;0.50;;;;;;;;2;238039288;238039288;-73
2023/08/14 20:28:11;;;;;;;;;0.50;0.50;;;;;;;;2;201851063;201851063;-72
2023/08/14 20:35:49;;;;;;;;;1.00;1.00;;;;;;;;2;237092745;237092745;-72
2023/08/14 20:42:33;;;;;;;;;1.00;1.00;;;;;;;;2;196074147;196074147;-73
2023/08/14 20:50:04;;;;;;;;;0.00;0.00;;;;;;;;2;236874269;236874269;-72
2023/08/14 20:56:29;;;;;;;;;0.50;0.50;;;;;;;;2;188436973;188436973;-72
2023/08/14 21:03:40;;;;;;;;;0.50;0.50;;;;;;;;2;223817073;223817073;-72
2023/08/14 21:10:03;;;;;;;;;11.00;0.00;;;;;;;;2;185568127;185568127;-72
2023/08/14 21:17:17;;;;;;;;;2.00;2.00;;;;;;;;2;223980195;223980195;-71
2023/08/14 21:23:44;;;;;;;;;0.00;0.00;;;;;;;;2;188016563;188016563;-73
2023/08/14 21:30:58;;;;;;;;;1.00;1.00;;;;;;;;2;223400442;223400442;-72
2023/08/14 21:37:20;;;;;;;;;0.50;0.50;;;;;;;;2;187616689;187616689;-72
2023/08/14 21:44:34;;;;;;;;;0.50;0.50;;;;;;;;2;226326005;226326005;-74
2023/08/14 21:50:57;;;;;;;;;0.00;0.00;;;;;;;;2;188839871;188839871;-74
2023/08/14 21:58:06;;;;;;;;;0.50;0.50;;;;;;;;2;221105695;221105695;-75
2023/08/14 22:04:22;;;;;;;;;0.00;0.00;;;;;;;;2;184406316;184406316;-74
2023/08/14 22:11:34;;;;;;;;;3.50;3.50;;;;;;;;2;222171296;222171296;-73
2023/08/14 22:17:53;;;;;;;;;0.00;0.00;;;;;;;;2;185132888;185132888;-75
2023/08/14 22:24:55;;;;;;;;;1.50;1.50;;;;;;;;2;218218036;218218036;-74
2023/08/14 22:31:14;;;;;;;;;0.50;0.50;;;;;;;;2;185214300;185214300;-75
2023/08/14 22:38:21;;;;;;;;;0.50;0.50;;;;;;;;2;218722837;218722837;-75
2023/08/14 22:44:42;;;;;;;;;0.50;0.50;;;;;;;;2;184735565;184735565;-76
2023/08/14 22:51:54;;;;;;;;;1.50;1.50;;;;;;;;2;226430595;226430595;-75
2023/08/14 22:58:14;;;;;;;;;0.00;0.00;;;;;;;;2;184943387;184943387;-75
2023/08/14 23:05:18;;;;;;;;;0.50;0.50;;;;;;;;2;215540708;215540708;-75
2023/08/14 23:11:36;;;;;;;;;4.50;1.50;;;;;;;;2;183259934;183259934;-74
2023/08/14 23:18:44;;;;;;;;;3.00;3.00;;;;;;;;2;220947034;220947034;-74
2023/08/14 23:25:01;;;;;;;;;13.50;2.50;;;;;;;;2;179185414;179185414;-75
2023/08/14 23:32:16;;;;;;;;;0.00;0.00;;;;;;;;2;224721667;224721667;-74
2023/08/14 23:38:36;;;;;;;;;2.00;2.00;;;;;;;;2;189279351;189279351;-74
2023/08/14 23:45:45;;;;;;;;;0.00;0.00;;;;;;;;2;224092233;224092233;-74
2023/08/14 23:52:07;;;;;;;;;0.00;0.00;;;;;;;;2;184752845;184752845;-74
2023/08/14 23:59:14;;;;;;;;;0.50;0.50;;;;;;;;2;220478515;220478515;-75
